Time;durP1;ratioP1;P1;durP2;ratioP2;P2;SDS_P1;SDS_P2;PMS_P1;PMS_P2;Temp;Humidity;BMP_temperature;BMP_pressure;BME280_temperature;BME280_humidity;BME280_pressure;Samples;Min_cycle;Max_cycle;Signal;HPM_P1;HPM_P2
2023/08/22 00:00:52;;;;;;;;;;;24.40;51.20;;;20.80;98.38;95883.25;4971327;28;19973;-45
2023/08/22 00:03:18;;;;;;;;;;;24.40;50.80;;;20.78;98.33;95887.44;4975048;28;19965;-44
2023/08/22 00:05:43;;;;;;;;;;;24.30;50.80;;;20.76;98.62;95886.94;4962171;28;19909;-43
2023/08/22 00:08:09;;;;;;;;;;;24.30;50.90;;;20.73;98.80;95888.38;4964979;28;19949;-44
2023/08/22 00:10:36;;;;;;;;;;;24.30;51.10;;;20.71;98.95;95882.47;4971964;28;20392;-45
2023/08/22 00:13:03;;;;;;;;;;;24.30;51.10;;;20.67;99.27;95880.75;4963097;28;20376;-44
2023/08/22 00:15:30;;;;;;;;;;;24.30;51.80;;;20.62;100.00;95880.91;4959143;28;19949;-42
2023/08/22 00:17:56;;;;;;;;;;;24.20;51.20;;;20.62;99.79;95876.31;4964858;28;20380;-46
2023/08/22 00:20:24;;;;;;;;;;;24.20;51.30;;;20.59;99.47;95878.84;4961374;28;19941;-46
2023/08/22 00:22:50;;;;;;;;;;;24.20;51.40;;;20.53;100.00;95876.31;4973915;28;19917;-45
2023/08/22 00:25:16;;;;;;;;;;;24.20;51.50;;;20.51;100.00;95872.31;4974353;28;20328;-43
2023/08/22 00:27:42;;;;;;;;;;;24.10;51.60;;;20.47;100.00;95874.88;4964908;28;19910;-44
2023/08/22 00:30:08;;;;;;;;;;;24.10;51.70;;;20.45;100.00;95868.97;4962022;28;19914;-45
2023/08/22 00:32:34;;;;;;;;;;;24.00;51.70;;;20.41;100.00;95878.06;4968959;28;20006;-46
2023/08/22 00:35:00;;;;;;;;;;;24.00;51.80;;;20.38;100.00;95876.78;4955460;28;20000;-43
2023/08/22 00:37:27;;;;;;;;;;;24.00;52.00;;;20.35;100.00;95874.72;4967031;28;19914;-45
2023/08/22 00:39:53;;;;;;;;;;;23.90;52.00;;;20.34;100.00;95870.44;4968727;28;19910;-42
2023/08/22 00:42:19;;;;;;;;;;;23.90;52.10;;;20.33;100.00;95875.03;4963053;28;20744;-46
2023/08/22 00:44:45;;;;;;;;;;;23.90;52.20;;;20.29;100.00;95868.66;4970327;28;19916;-42
2023/08/22 00:47:11;;;;;;;;;;;23.90;52.90;;;20.26;100.00;95873.94;4973211;28;20060;-43
2023/08/22 00:49:39;;;;;;;;;;;23.90;52.30;;;20.24;100.00;95876.16;4971859;28;20008;-45
2023/08/22 00:52:06;;;;;;;;;;;23.90;52.40;;;20.22;100.00;95867.56;4961419;28;20012;-43
2023/08/22 00:54:32;;;;;;;;;;;23.80;52.40;;;20.20;100.00;95867.09;4972418;28;19909;-43
2023/08/22 00:56:59;;;;;;;;;;;23.80;52.50;;;20.14;100.00;95869.16;4961552;28;20257;-42
2023/08/22 00:59:27;;;;;;;;;;;23.80;52.60;;;20.07;100.00;95877.75;4961500;28;19910;-45
2023/08/22 01:01:54;;;;;;;;;;;23.80;52.70;;;20.10;100.00;95874.41;4972625;28;19917;-44
2023/08/22 01:04:20;;;;;;;;;;;23.70;52.80;;;20.09;100.00;95872.81;4970915;28;19937;-46
2023/08/22 01:07:08;;;;;;;;;;;23.70;52.90;;;20.07;100.00;95869.63;4940208;28;19949;-43
2023/08/22 01:09:48;;;;;;;;;;;23.70;53.00;;;20.06;100.00;95868.06;4968859;28;19917;-51
2023/08/22 01:12:29;;;;;;;;;;;23.70;53.10;;;20.05;100.00;95871.06;4972165;28;19914;-45
2023/08/22 01:15:26;;;;;;;;;;;23.60;53.20;;;20.02;100.00;95874.41;4971638;28;19921;-46
2023/08/22 01:17:54;;;;;;;;;;;23.60;53.30;;;20.01;100.00;95870.91;4959204;28;19909;-46
2023/08/22 01:20:21;;;;;;;;;;;23.60;53.40;;;20.00;100.00;95871.22;4965653;28;19910;-43
2023/08/22 01:22:47;;;;;;;;;;;23.60;53.40;;;19.97;100.00;95871.88;4954947;28;19958;-43
2023/08/22 01:25:13;;;;;;;;;;;23.60;53.50;;;19.95;100.00;95868.69;4966069;28;20360;-47
2023/08/22 01:28:33;;;;;;;;;;;23.60;53.60;;;19.92;100.00;95872.00;4972926;28;19914;-42
2023/08/22 01:31:18;;;;;;;;;;;23.50;53.60;;;19.89;100.00;95868.03;4953871;28;19953;-44
2023/08/22 01:34:06;;;;;;;;;;;23.50;53.70;;;19.86;100.00;95874.06;4956297;28;19920;-42
2023/08/22 01:36:37;;;;;;;;;;;23.50;53.80;;;19.84;100.00;95881.72;4959930;28;20071;-43
2023/08/22 01:39:07;;;;;;;;;;;23.50;53.90;;;19.82;100.00;95875.81;4978304;28;19917;-45
2023/08/22 01:41:35;;;;;;;;;;;23.50;53.90;;;19.80;100.00;95872.63;4960126;28;20277;-44
2023/08/22 01:44:03;;;;;;;;;;;23.50;54.00;;;19.78;100.00;95875.66;4969439;28;20468;-42
2023/08/22 01:46:29;;;;;;;;;;;23.50;54.10;;;19.77;100.00;95873.25;4961878;28;19910;-44
2023/08/22 01:48:56;;;;;;;;;;;23.40;54.10;;;19.74;100.00;95877.41;4964326;28;19913;-44
2023/08/22 01:51:22;;;;;;;;;;;23.40;54.20;;;19.71;100.00;95871.81;4965121;28;20292;-46
2023/08/22 01:53:47;;;;;;;;;;;23.40;54.20;;;19.68;100.00;95877.84;4953458;28;19921;-44
2023/08/22 01:56:13;;;;;;;;;;;23.30;54.20;;;19.63;100.00;95879.56;4970286;28;19996;-45
2023/08/22 01:58:39;;;;;;;;;;;23.40;54.30;;;19.60;100.00;95872.09;4959020;28;20335;-45
2023/08/22 02:01:13;;;;;;;;;;;23.30;54.30;;;19.56;100.00;95873.84;4961268;28;19910;-43
2023/08/22 02:03:43;;;;;;;;;;;23.30;54.40;;;19.54;100.00;95880.66;4970234;28;20288;-43
2023/08/22 02:06:09;;;;;;;;;;;23.30;54.40;;;19.41;100.00;95875.06;4945284;28;20251;-44
2023/08/22 02:08:35;;;;;;;;;;;23.20;54.50;;;19.37;100.00;95874.13;4959925;28;20005;-45
2023/08/22 10:32:22;;;;;;;;;;;45.70;29.20;;;39.67;30.03;95919.75;4990923;28;19964;-51
2023/08/22 10:34:55;;;;;;;;;;;45.80;29.20;;;39.98;29.82;95920.72;4990562;28;19920;-51
2023/08/22 10:37:27;;;;;;;;;;;45.90;29.00;;;40.26;30.38;95920.22;4991435;28;19916;-48
2023/08/22 10:40:02;;;;;;;;;;;46.10;29.00;;;40.33;28.75;95922.75;4989921;28;19915;-52
2023/08/22 10:42:28;;;;;;;;;;;46.20;28.80;;;40.54;27.84;95921.22;4990060;28;19963;-50
2023/08/22 10:44:57;;;;;;;;;;;46.40;28.70;;;40.62;28.02;95912.16;4988506;28;19910;-50
2023/08/22 10:47:24;;;;;;;;;;;46.60;28.50;;;40.78;28.87;95916.00;4991850;28;19914;-52
2023/08/22 10:49:56;;;;;;;;;;;46.80;28.40;;;39.87;29.97;95913.97;4991236;28;20330;-53
2023/08/22 10:52:36;;;;;;;;;;;47.00;28.30;;;38.02;32.45;95907.00;4992240;28;20380;-51
2023/08/22 10:55:11;;;;;;;;;;;46.80;28.10;;;38.85;31.61;95898.75;4991378;28;19931;-54
2023/08/22 10:57:45;;;;;;;;;;;46.60;28.10;;;39.28;31.31;95903.06;4992138;28;19979;-55
2023/08/22 11:00:24;;;;;;;;;;;46.60;28.20;;;39.41;30.52;95893.91;4992275;28;20813;-54
2023/08/22 11:02:58;;;;;;;;;;;46.60;28.10;;;39.80;29.49;95898.22;4983517;28;20003;-55
2023/08/22 11:05:26;;;;;;;;;;;46.60;28.10;;;39.82;29.95;95892.22;4975501;28;19917;-55
2023/08/22 11:07:52;;;;;;;;;;;46.60;28.00;;;39.96;29.73;95886.94;4991636;28;19916;-54
2023/08/22 11:10:22;;;;;;;;;;;46.60;27.90;;;40.16;29.55;95877.50;4991783;28;19996;-53
2023/08/22 11:12:50;;;;;;;;;;;46.60;27.80;;;40.17;29.42;95888.22;4994764;28;19917;-49
2023/08/22 11:15:17;;;;;;;;;;;46.60;27.80;;;40.26;29.79;95881.94;4982954;28;19917;-50
2023/08/22 11:17:46;;;;;;;;;;;46.70;27.70;;;40.61;29.78;95877.09;4995006;28;19913;-54
2023/08/22 11:20:17;;;;;;;;;;;46.90;27.60;;;40.44;28.66;95873.72;4994915;28;20008;-52
2023/08/22 11:22:44;;;;;;;;;;;47.00;27.50;;;40.79;28.49;95879.22;4995861;28;19909;-53
2023/08/22 11:25:20;;;;;;;;;;;47.20;27.50;;;40.53;28.66;95880.59;4994964;28;19919;-50
2023/08/22 11:27:46;;;;;;;;;;;47.40;27.20;;;40.74;28.91;95882.59;4995786;28;19910;-55
2023/08/22 11:30:12;;;;;;;;;;;47.60;27.20;;;41.18;27.78;95871.38;4996237;28;20257;-49
2023/08/22 11:32:40;;;;;;;;;;;47.80;27.10;;;41.50;27.54;95881.31;4995743;28;19921;-55
2023/08/22 11:35:08;;;;;;;;;;;48.10;27.10;;;41.63;27.80;95878.38;4995796;28;19909;-52
2023/08/22 11:37:37;;;;;;;;;;;48.30;27.00;;;41.85;26.60;95872.69;4989935;28;19909;-53
2023/08/22 11:40:09;;;;;;;;;;;48.40;26.80;;;41.77;26.21;95877.00;4995744;28;19997;-55
2023/08/22 11:42:37;;;;;;;;;;;48.60;26.60;;;41.85;26.08;95872.69;4994902;28;19936;-52
2023/08/22 11:45:14;;;;;;;;;;;48.80;26.50;;;42.21;26.04;95871.16;4995473;28;19909;-55
2023/08/22 11:47:42;;;;;;;;;;;48.90;26.40;;;42.21;25.91;95871.94;4993140;28;20063;-53
2023/08/22 11:50:32;;;;;;;;;;;49.00;26.30;;;42.32;25.60;95870.75;4992887;28;19914;-52
2023/08/22 11:53:11;;;;;;;;;;;49.10;26.20;;;42.51;25.42;95861.84;4996210;28;20004;-51
2023/08/22 11:55:43;;;;;;;;;;;49.30;26.20;;;42.55;25.81;95866.50;4986835;28;19996;-53
2023/08/22 11:58:17;;;;;;;;;;;49.60;26.10;;;42.83;24.84;95858.84;4995328;28;19909;-53
2023/08/22 12:00:43;;;;;;;;;;;49.70;25.90;;;42.32;24.65;95863.13;4994699;28;19917;-51
2023/08/22 12:03:12;;;;;;;;;;;49.90;25.50;;;42.05;25.26;95856.25;4995037;28;19909;-54
2023/08/22 12:05:41;;;;;;;;;;;49.80;25.00;;;41.86;25.65;95851.09;4995405;28;19947;-52
2023/08/22 12:08:06;;;;;;;;;;;49.60;24.90;;;42.28;24.96;95851.28;4994567;28;19909;-54
2023/08/22 12:10:46;;;;;;;;;;;49.50;25.00;;;42.32;24.21;95845.56;4995265;28;19932;-54
2023/08/22 12:13:15;;;;;;;;;;;49.60;25.00;;;42.44;24.08;95853.00;4993724;28;20315;-51
2023/08/22 12:15:41;;;;;;;;;;;49.60;24.90;;;42.69;22.68;95860.28;4994936;28;19913;-52
2023/08/22 12:18:09;;;;;;;;;;;49.80;24.90;;;42.70;21.63;95853.41;4994698;28;19955;-55
2023/08/22 12:20:38;;;;;;;;;;;49.90;24.70;;;42.83;21.56;95856.06;4976897;28;19941;-51
2023/08/22 12:23:06;;;;;;;;;;;50.10;24.60;;;42.91;21.77;95852.44;4994625;28;19916;-51
2023/08/22 12:25:34;;;;;;;;;;;50.20;24.50;;;42.94;22.51;95851.50;4994375;28;19964;-52
2023/08/22 12:28:05;;;;;;;;;;;50.30;24.40;;;43.00;21.55;95848.84;4994188;28;20014;-51
2023/08/22 12:30:35;;;;;;;;;;;50.40;24.30;;;42.58;21.94;95851.56;4994346;28;20403;-55
2023/08/22 12:33:03;;;;;;;;;;;50.50;24.20;;;42.51;22.84;95844.28;4994486;28;19969;-55
2023/08/22 12:35:38;;;;;;;;;;;50.60;24.10;;;42.57;22.42;95841.63;4994724;28;19909;-53
2023/08/22 12:38:05;;;;;;;;;;;50.70;24.00;;;42.73;22.50;95832.91;4982106;28;20368;-52
2023/08/22 12:40:31;;;;;;;;;;;50.70;23.80;;;42.39;23.51;95837.59;4994615;28;19910;-52
2023/08/22 12:42:59;;;;;;;;;;;50.70;23.80;;;42.52;23.10;95834.63;4994012;28;19963;-49
2023/08/22 12:45:25;;;;;;;;;;;50.70;23.80;;;43.15;21.98;95834.94;4994424;28;19909;-53
2023/08/22 12:47:51;;;;;;;;;;;50.70;23.70;;;43.01;21.59;95836.38;4960757;28;19917;-54
2023/08/22 12:50:17;;;;;;;;;;;50.80;23.50;;;43.39;21.57;95838.56;4993721;28;19932;-54
2023/08/22 12:52:43;;;;;;;;;;;50.80;23.40;;;43.55;20.91;95836.63;4994091;28;19925;-51
2023/08/22 12:55:09;;;;;;;;;;;50.90;23.40;;;43.63;21.00;95835.03;4993387;28;19958;-51
2023/08/22 12:57:37;;;;;;;;;;;50.90;23.30;;;43.48;21.88;95834.94;4993928;28;19914;-55
2023/08/22 13:00:04;;;;;;;;;;;51.00;23.20;;;43.25;22.34;95821.66;4994236;28;19910;-52
2023/08/22 13:02:30;;;;;;;;;;;51.20;23.70;;;43.18;22.36;95829.16;4993023;28;19963;-52
2023/08/22 13:04:56;;;;;;;;;;;51.20;23.10;;;43.39;22.31;95824.53;4993964;28;20610;-50
2023/08/22 13:07:22;;;;;;;;;;;51.20;23.10;;;43.36;22.33;95819.13;4985433;28;20378;-54
2023/08/22 13:09:48;;;;;;;;;;;51.20;23.10;;;43.47;21.68;95816.56;4986047;28;19931;-52
2023/08/22 13:12:14;;;;;;;;;;;51.30;23.10;;;43.51;21.86;95814.34;4991745;28;19909;-53
2023/08/22 13:14:39;;;;;;;;;;;51.40;23.00;;;43.48;21.66;95817.34;4990573;28;20206;-51
2023/08/22 13:17:05;;;;;;;;;;;51.60;23.00;;;43.64;21.50;95809.31;4991509;28;19948;-53
2023/08/22 13:19:31;;;;;;;;;;;51.80;22.90;;;43.96;21.34;95811.75;4990191;28;19949;-53
2023/08/22 13:21:57;;;;;;;;;;;51.90;22.70;;;43.71;21.28;95808.16;4991220;28;19960;-54
2023/08/22 13:24:22;;;;;;;;;;;52.20;22.80;;;43.64;21.79;95805.72;4990316;28;19921;-52
2023/08/22 13:26:48;;;;;;;;;;;52.30;22.60;;;43.49;22.95;95804.88;4991252;28;19909;-51
2023/08/22 13:29:14;;;;;;;;;;;52.20;22.50;;;43.36;22.14;95805.88;4989225;28;19909;-56
2023/08/22 13:31:40;;;;;;;;;;;52.10;22.40;;;43.29;22.21;95803.44;4992415;28;19921;-53
2023/08/22 13:34:06;;;;;;;;;;;52.00;22.30;;;43.14;21.88;95796.97;4983413;28;19913;-51
2023/08/22 13:36:32;;;;;;;;;;;52.00;22.20;;;43.03;22.73;95791.88;4979384;28;19913;-49
2023/08/22 13:38:58;;;;;;;;;;;51.80;22.20;;;42.92;22.76;95789.56;4978311;28;19917;-54
2023/08/22 13:41:24;;;;;;;;;;;51.30;22.20;;;42.67;23.39;95787.16;4994011;28;19962;-52
2023/08/22 13:43:51;;;;;;;;;;;50.80;22.30;;;42.19;23.64;95787.72;4976228;28;20017;-54
2023/08/22 13:46:17;;;;;;;;;;;50.10;22.40;;;41.92;23.69;95782.91;4977869;28;19944;-54
2023/08/22 13:48:47;;;;;;;;;;;49.60;22.60;;;42.08;24.12;95778.25;4973745;28;20329;-49
2023/08/22 13:51:13;;;;;;;;;;;49.80;22.70;;;42.27;23.79;95774.16;4993541;28;19913;-51
2023/08/22 13:53:39;;;;;;;;;;;50.10;22.60;;;42.62;23.39;95777.34;4993430;28;20376;-51
2023/08/22 13:56:05;;;;;;;;;;;50.50;22.50;;;42.54;23.42;95778.19;4986759;28;19910;-55
2023/08/22 13:58:31;;;;;;;;;;;50.70;22.40;;;42.58;23.56;95764.78;4993289;28;19909;-50
2023/08/22 14:00:57;;;;;;;;;;;50.60;22.50;;;42.35;23.73;95758.63;4991774;28;20419;-53
2023/08/22 14:03:23;;;;;;;;;;;50.80;22.40;;;42.60;23.97;95751.09;4988296;28;20361;-49
2023/08/22 14:05:48;;;;;;;;;;;51.00;22.30;;;42.97;23.01;95768.56;4982135;28;20394;-53
2023/08/22 14:08:14;;;;;;;;;;;51.40;22.20;;;42.67;23.74;95759.94;4979358;28;19910;-54
2023/08/22 14:10:40;;;;;;;;;;;51.70;22.00;;;42.65;23.19;95758.84;4993308;28;19967;-51
2023/08/22 14:13:05;;;;;;;;;;;52.00;21.90;;;42.86;23.65;95759.88;4970514;28;20323;-52
2023/08/22 14:15:31;;;;;;;;;;;52.20;21.70;;;43.14;22.66;95755.72;4988727;28;19909;-50
2023/08/22 14:17:57;;;;;;;;;;;52.60;21.60;;;43.34;22.41;95745.94;4992824;28;19909;-49
2023/08/22 14:20:22;;;;;;;;;;;52.90;21.50;;;43.73;22.71;95749.59;4984539;28;19913;-52
2023/08/22 14:22:48;;;;;;;;;;;53.20;21.40;;;43.93;21.71;95753.81;4992892;28;20287;-53
2023/08/22 14:25:14;;;;;;;;;;;53.50;21.30;;;44.22;22.14;95751.03;4985596;28;19910;-50
2023/08/22 14:27:40;;;;;;;;;;;53.90;21.20;;;44.19;21.64;95752.00;4986998;28;20343;-52
2023/08/22 14:30:15;;;;;;;;;;;54.40;21.10;;;44.45;21.57;95737.41;4984617;28;20047;-52
2023/08/22 14:32:41;;;;;;;;;;;54.90;20.70;;;44.45;21.76;95745.84;4989920;28;19917;-55
2023/08/22 14:35:07;;;;;;;;;;;55.40;20.50;;;44.61;21.60;95741.75;4993030;28;20287;-50
2023/08/22 14:37:33;;;;;;;;;;;55.80;20.30;;;44.59;21.58;95741.44;4987145;28;20028;-55
2023/08/22 14:39:59;;;;;;;;;;;55.80;20.20;;;44.65;21.36;95729.06;4981590;28;19988;-54
2023/08/22 14:42:25;;;;;;;;;;;56.10;20.10;;;45.07;20.71;95727.91;4976653;28;19963;-52
2023/08/22 14:44:50;;;;;;;;;;;56.50;19.80;;;45.59;20.37;95730.16;4984710;28;19913;-53
2023/08/22 14:47:16;;;;;;;;;;;57.20;19.60;;;45.37;20.86;95734.22;4985254;28;19917;-55
2023/08/22 14:49:42;;;;;;;;;;;57.90;19.40;;;45.84;20.22;95728.66;4974923;28;19910;-56
2023/08/22 14:52:08;;;;;;;;;;;58.50;19.10;;;46.07;19.73;95724.84;4992313;28;19955;-54
2023/08/22 14:54:34;;;;;;;;;;;59.10;18.90;;;46.25;19.81;95720.91;4990844;28;19949;-53
2023/08/22 14:57:00;;;;;;;;;;;59.70;18.70;;;46.31;19.83;95720.97;4975930;28;19952;-51
2023/08/22 14:59:25;;;;;;;;;;;60.00;18.50;;;46.41;19.47;95713.88;4986092;28;20445;-54
2023/08/22 15:01:52;;;;;;;;;;;60.10;18.30;;;46.52;19.39;95713.97;4986164;28;19909;-49
2023/08/22 15:04:19;;;;;;;;;;;60.20;18.20;;;46.51;18.83;95717.28;4992665;28;20000;-49
2023/08/22 15:06:45;;;;;;;;;;;60.40;18.00;;;46.64;18.31;95712.06;4988992;28;19918;-48
2023/08/22 15:09:11;;;;;;;;;;;60.70;18.00;;;46.46;18.08;95713.16;4986223;28;20296;-49
2023/08/22 15:11:36;;;;;;;;;;;60.90;17.70;;;46.52;18.21;95707.59;4993498;28;19936;-59
2023/08/22 15:14:03;;;;;;;;;;;61.20;17.40;;;46.38;19.34;95706.44;4988185;28;20287;-55
2023/08/22 15:16:28;;;;;;;;;;;61.50;17.20;;;46.08;18.18;95705.91;4980866;28;19921;-50
2023/08/22 15:19:08;;;;;;;;;;;61.60;16.70;;;45.87;19.21;95705.94;4990853;28;20280;-53
2023/08/22 15:21:34;;;;;;;;;;;61.80;16.40;;;46.03;19.00;95703.78;4981306;28;19909;-49
2023/08/22 15:24:00;;;;;;;;;;;61.80;16.40;;;46.41;18.42;95704.66;4974734;28;19924;-51
2023/08/22 15:26:26;;;;;;;;;;;62.00;16.30;;;46.24;18.49;95707.31;4991189;28;19909;-53
2023/08/22 15:28:51;;;;;;;;;;;61.90;16.10;;;46.08;19.42;95703.84;4991938;28;19933;-51
2023/08/22 15:31:17;;;;;;;;;;;61.80;16.00;;;46.20;18.99;95703.94;4987627;28;19920;-51
2023/08/22 15:33:43;;;;;;;;;;;61.60;16.00;;;46.36;18.88;95697.72;4977931;28;19910;-54
2023/08/22 15:36:09;;;;;;;;;;;61.80;16.00;;;46.63;18.47;95696.41;4973065;28;19955;-52
2023/08/22 15:38:36;;;;;;;;;;;61.90;15.90;;;46.71;18.41;95700.31;4971633;28;20399;-55
2023/08/22 15:41:03;;;;;;;;;;;62.00;15.90;;;46.73;18.82;95697.00;4960320;28;19971;-53
2023/08/22 15:43:32;;;;;;;;;;;62.10;15.90;;;46.65;19.10;95695.94;4971084;28;19914;-50
2023/08/22 15:45:57;;;;;;;;;;;62.20;15.80;;;46.55;18.95;95706.59;4971277;28;19968;-50
2023/08/22 15:48:23;;;;;;;;;;;62.20;15.80;;;46.19;18.76;95700.34;4970862;28;19963;-48
2023/08/22 15:50:49;;;;;;;;;;;62.10;15.70;;;46.28;18.57;95703.03;4983732;28;19913;-51
2023/08/22 15:53:15;;;;;;;;;;;62.00;15.70;;;45.98;18.76;95702.50;4972548;28;19917;-54
2023/08/22 15:55:40;;;;;;;;;;;61.90;15.70;;;45.63;19.07;95696.97;4972279;28;19914;-52
2023/08/22 15:58:08;;;;;;;;;;;61.90;15.70;;;45.62;19.37;95698.22;4971415;28;28120;-53
2023/08/22 16:00:35;;;;;;;;;;;61.40;15.80;;;45.48;19.25;95691.41;4971381;28;19964;-52
2023/08/22 16:03:01;;;;;;;;;;;60.80;15.90;;;45.55;19.37;95693.06;4968394;28;19921;-53
2023/08/22 16:05:26;;;;;;;;;;;60.70;15.90;;;45.71;19.36;95692.47;4958604;28;20339;-50
2023/08/22 16:07:52;;;;;;;;;;;60.90;15.90;;;45.47;19.55;95684.22;4968855;28;19915;-55
2023/08/22 16:10:18;;;;;;;;;;;61.00;15.80;;;45.38;19.45;95679.53;4976022;28;20114;-51
2023/08/22 16:12:44;;;;;;;;;;;60.90;15.80;;;44.68;20.70;95688.00;4974532;28;19914;-52
2023/08/22 16:15:10;;;;;;;;;;;59.90;16.00;;;44.17;21.05;95675.94;4975721;28;19914;-47
2023/08/22 16:17:35;;;;;;;;;;;59.30;16.20;;;44.21;21.00;95676.50;4975804;28;20364;-49
2023/08/22 16:20:01;;;;;;;;;;;59.50;16.20;;;44.29;21.25;95676.91;4974740;28;20379;-51
2023/08/22 16:22:27;;;;;;;;;;;59.80;16.10;;;44.16;22.35;95680.00;4975721;28;20333;-54
2023/08/22 16:24:53;;;;;;;;;;;60.00;16.00;;;44.34;21.41;95674.19;4978208;28;19955;-52
2023/08/22 16:27:19;;;;;;;;;;;59.40;16.10;;;43.62;22.04;95682.81;4981473;28;19914;-56
2023/08/22 16:29:45;;;;;;;;;;;58.50;16.20;;;43.48;22.66;95672.34;4975757;28;19956;-57
2023/08/22 16:32:11;;;;;;;;;;;58.40;16.40;;;43.41;22.79;95670.69;4984226;28;19917;-54
2023/08/22 16:34:37;;;;;;;;;;;58.40;16.30;;;43.25;22.22;95673.94;5013807;23;19921;-56
2023/08/22 16:37:02;;;;;;;;;;;58.50;16.20;;;43.18;22.04;95672.25;4992706;28;19917;-56
2023/08/22 16:39:28;;;;;;;;;;;58.70;16.20;;;43.73;22.64;95673.88;4994883;28;19909;-57
2023/08/22 16:41:54;;;;;;;;;;;58.80;16.10;;;43.70;22.34;95674.84;4994718;28;20580;-55
2023/08/22 16:44:19;;;;;;;;;;;58.80;16.10;;;43.45;22.13;95672.53;5006771;28;19924;-56
2023/08/22 16:46:46;;;;;;;;;;;58.80;16.10;;;43.55;22.07;95674.03;5010094;28;20394;-54
2023/08/22 16:49:11;;;;;;;;;;;58.80;16.10;;;43.00;22.95;95672.38;5002098;28;19909;-57
2023/08/22 16:51:37;;;;;;;;;;;58.80;16.10;;;42.54;23.10;95671.81;5014265;28;20000;-57
2023/08/22 16:54:03;;;;;;;;;;;58.60;16.10;;;42.82;22.75;95678.09;5014091;28;19909;-56
2023/08/22 16:56:29;;;;;;;;;;;58.30;16.10;;;42.80;22.67;95674.97;5012813;28;19913;-57
2023/08/22 16:58:57;;;;;;;;;;;58.10;16.20;;;42.80;22.94;95680.56;5014171;28;20312;-56
2023/08/22 17:01:22;;;;;;;;;;;57.90;16.20;;;42.53;23.21;95682.25;5013183;28;19909;-56
2023/08/22 17:03:49;;;;;;;;;;;56.90;16.30;;;42.00;23.08;95668.72;5013867;28;19913;-48
2023/08/22 17:06:15;;;;;;;;;;;55.10;17.00;;;41.43;23.84;95668.38;5014082;28;19974;-53
2023/08/22 17:08:42;;;;;;;;;;;53.20;17.70;;;40.64;24.28;95674.44;5012863;28;20331;-51
2023/08/22 17:11:13;;;;;;;;;;;51.40;18.40;;;40.01;25.29;95670.88;5013901;28;20016;-49
2023/08/22 17:13:42;;;;;;;;;;;49.80;19.00;;;39.53;27.38;95673.78;5011841;28;20271;-49
2023/08/22 17:16:10;;;;;;;;;;;48.40;19.60;;;38.93;28.90;95667.50;5013687;28;20398;-53
2023/08/22 17:18:37;;;;;;;;;;;47.20;20.10;;;38.49;30.21;95679.22;5001006;28;19970;-47
2023/08/22 17:21:10;;;;;;;;;;;46.10;20.60;;;37.95;30.34;95672.47;5020114;28;19909;-52
2023/08/22 17:23:39;;;;;;;;;;;45.10;21.10;;;37.39;31.24;95669.22;5013373;28;19920;-54
2023/08/22 17:26:11;;;;;;;;;;;44.20;21.50;;;37.11;31.77;95673.53;5012569;28;19959;-52
2023/08/22 17:28:39;;;;;;;;;;;43.40;21.90;;;36.67;33.59;95667.44;5013711;28;19909;-52
2023/08/22 17:31:10;;;;;;;;;;;42.60;22.30;;;36.00;34.41;95662.19;5012245;28;19948;-47
2023/08/22 17:33:39;;;;;;;;;;;41.90;22.80;;;35.48;35.16;95669.16;5013248;28;20000;-50
2023/08/22 17:36:07;;;;;;;;;;;41.20;23.60;;;34.95;36.35;95670.88;5010405;28;20016;-50
2023/08/22 17:38:34;;;;;;;;;;;40.60;23.50;;;34.63;36.45;95668.63;5010492;28;19916;-49
2023/08/22 17:41:05;;;;;;;;;;;40.10;23.90;;;34.26;38.14;95671.13;5013344;28;20372;-48
2023/08/22 17:43:33;;;;;;;;;;;39.60;24.30;;;33.69;39.81;95660.03;5003681;28;20012;-49
2023/08/22 17:46:00;;;;;;;;;;;39.10;24.60;;;33.30;40.17;95662.00;5013113;28;20362;-49
2023/08/22 17:48:26;;;;;;;;;;;38.60;24.90;;;32.97;40.35;95670.97;4994494;28;20387;-51
2023/08/22 17:50:59;;;;;;;;;;;38.20;25.30;;;32.65;41.92;95664.53;5012029;28;20363;-51
2023/08/22 17:53:24;;;;;;;;;;;37.70;25.50;;;32.48;42.48;95668.25;5013075;28;19919;-50
2023/08/22 17:55:52;;;;;;;;;;;37.30;25.90;;;32.08;43.60;95670.44;5011891;28;20275;-50
2023/08/22 17:58:19;;;;;;;;;;;36.90;26.20;;;31.82;44.95;95668.97;5012797;28;20225;-50
2023/08/22 18:00:50;;;;;;;;;;;36.50;26.50;;;31.66;44.90;95672.19;4978273;28;19917;-53
2023/08/22 18:03:16;;;;;;;;;;;36.10;26.80;;;31.46;45.27;95671.06;5007869;28;19987;-52
2023/08/22 18:06:03;;;;;;;;;;;35.80;27.20;;;30.94;47.00;95668.00;5009863;28;19932;-54
2023/08/22 18:08:30;;;;;;;;;;;35.40;27.60;;;30.72;47.43;95672.72;5021243;28;19909;-51
2023/08/22 18:10:57;;;;;;;;;;;35.00;27.80;;;30.28;48.19;95671.09;5008532;28;20283;-54
2023/08/22 18:13:27;;;;;;;;;;;34.70;28.20;;;29.90;49.22;95671.38;5011280;28;19964;-55
2023/08/22 18:15:59;;;;;;;;;;;34.30;28.40;;;29.70;50.08;95672.88;5012770;28;19952;-49
2023/08/22 18:18:26;;;;;;;;;;;34.00;28.80;;;29.18;50.98;95674.94;5012037;28;20342;-57
2023/08/22 18:20:53;;;;;;;;;;;33.70;29.10;;;29.13;51.76;95684.31;5006185;28;19917;-52
2023/08/22 18:23:19;;;;;;;;;;;33.40;29.40;;;29.10;52.41;95678.81;5008013;28;19920;-51
2023/08/22 18:25:45;;;;;;;;;;;33.10;29.70;;;28.92;53.14;95675.91;5020223;28;20400;-48
2023/08/22 18:28:11;;;;;;;;;;;32.80;30.00;;;28.71;53.85;95687.50;5007240;28;19909;-48
2023/08/22 18:30:37;;;;;;;;;;;32.60;30.30;;;28.60;54.34;95679.19;5012432;28;19916;-51
2023/08/22 18:33:03;;;;;;;;;;;32.30;30.70;;;28.42;55.30;95684.50;5024114;28;19955;-49
2023/08/22 18:35:29;;;;;;;;;;;32.10;31.10;;;28.33;55.33;95684.00;5012442;28;19948;-55
2023/08/22 18:37:54;;;;;;;;;;;31.90;31.40;;;28.14;56.30;95687.72;5011339;28;20011;-51
2023/08/22 18:40:20;;;;;;;;;;;31.70;31.80;;;28.07;56.16;95687.66;5012420;28;19915;-50
2023/08/22 18:42:46;;;;;;;;;;;31.60;32.10;;;27.91;56.95;95685.91;5010839;28;19974;-49
2023/08/22 18:45:11;;;;;;;;;;;31.40;32.40;;;27.79;57.96;95693.59;5019681;28;19941;-48
2023/08/22 18:47:37;;;;;;;;;;;31.30;32.70;;;27.60;58.43;95687.06;5012262;28;19909;-52
2023/08/22 18:50:05;;;;;;;;;;;31.10;33.00;;;27.41;59.12;95688.00;5011431;28;19909;-50
2023/08/22 18:52:32;;;;;;;;;;;31.00;33.40;;;27.35;59.86;95694.19;5010871;28;19909;-48
2023/08/22 18:54:58;;;;;;;;;;;30.80;33.50;;;27.15;60.36;95694.31;5010939;28;19913;-53
2023/08/22 18:57:24;;;;;;;;;;;30.70;33.80;;;27.01;61.04;95699.50;5011953;28;20398;-50
2023/08/22 18:59:50;;;;;;;;;;;30.50;34.10;;;26.92;61.04;95702.53;5012292;28;19916;-51
2023/08/22 19:02:16;;;;;;;;;;;30.40;34.40;;;26.72;61.07;95701.81;5011088;28;19909;-50
2023/08/22 19:04:41;;;;;;;;;;;30.30;34.60;;;26.65;61.88;95701.69;5011980;28;20273;-49
2023/08/22 19:07:09;;;;;;;;;;;30.20;34.90;;;26.52;61.96;95711.25;5016281;28;20011;-48
2023/08/22 19:09:34;;;;;;;;;;;30.10;35.10;;;26.55;62.11;95707.78;5019529;28;19913;-49
2023/08/22 19:12:00;;;;;;;;;;;30.00;35.40;;;26.44;62.04;95713.00;5011847;28;20269;-50
2023/08/22 19:14:26;;;;;;;;;;;30.00;35.60;;;26.29;63.92;95712.00;5010721;28;20004;-49
2023/08/22 19:16:52;;;;;;;;;;;29.90;35.80;;;26.06;61.13;95722.84;5012171;28;19909;-55
2023/08/22 19:19:17;;;;;;;;;;;29.80;36.10;;;26.28;61.05;95728.72;5010873;28;19909;-50
2023/08/22 19:21:43;;;;;;;;;;;29.70;36.20;;;26.43;60.99;95725.09;5011843;28;19915;-52
2023/08/22 19:24:09;;;;;;;;;;;29.70;36.40;;;26.60;59.13;95729.31;5011667;28;19913;-51
2023/08/22 19:26:35;;;;;;;;;;;29.70;36.50;;;26.70;58.59;95728.72;5010636;28;20406;-47
2023/08/22 19:29:00;;;;;;;;;;;29.70;36.60;;;26.77;59.70;95728.84;5009274;28;19913;-48
2023/08/22 19:31:26;;;;;;;;;;;29.80;36.70;;;26.76;61.00;95737.38;5010809;28;19909;-49
2023/08/22 19:33:52;;;;;;;;;;;29.80;36.80;;;26.47;63.11;95736.09;5008916;28;19917;-51
2023/08/22 19:36:21;;;;;;;;;;;29.80;36.90;;;26.37;61.75;95731.22;5010396;28;19909;-50
2023/08/22 19:38:47;;;;;;;;;;;29.70;36.90;;;26.31;62.62;95734.25;5007101;28;20023;-49
2023/08/22 19:41:12;;;;;;;;;;;29.70;37.10;;;26.26;62.78;95733.75;5014537;28;20007;-50